Time;durP1;ratioP1;P1;durP2;ratioP2;P2;SDS_P1;SDS_P2;PMS_P1;PMS_P2;Temp;Humidity;BMP_temperature;BMP_pressure;BME280_temperature;BME280_humidity;BME280_pressure;Samples;Min_cycle;Max_cycle;Signal;HPM_P1;HPM_P2
2023/06/24 00:01:24;;;;;;;13.60;11.68;;;;;;;22.97;59.61;94996.03;5064615;28;20570;-81
2023/06/24 00:03:52;;;;;;;13.02;11.63;;;;;;;22.96;59.09;95006.50;5063624;28;20033;-81
2023/06/24 00:06:22;;;;;;;16.05;12.10;;;;;;;22.94;59.42;94999.88;5065785;28;20540;-80
2023/06/24 00:08:48;;;;;;;15.25;12.85;;;;;;;22.91;59.82;94995.31;5065803;28;20028;-80
2023/06/24 00:11:13;;;;;;;17.70;12.15;;;;;;;22.88;59.13;94994.31;5069553;28;20461;-81
2023/06/24 00:13:39;;;;;;;13.60;12.13;;;;;;;22.89;59.98;94984.63;5069081;28;20029;-80
2023/06/24 00:16:06;;;;;;;15.77;12.80;;;;;;;22.84;60.31;94993.78;5069429;28;20082;-81
2023/06/24 00:18:35;;;;;;;12.60;11.20;;;;;;;22.89;59.53;94995.84;5068134;28;20109;-81
2023/06/24 00:21:04;;;;;;;16.95;11.30;;;;;;;22.88;58.64;94993.53;5068590;28;20499;-80
2023/06/24 00:23:34;;;;;;;13.18;11.60;;;;;;;22.83;58.71;94991.50;5068086;28;20033;-80
2023/06/24 00:26:00;;;;;;;15.48;10.60;;;;;;;22.82;58.54;94990.72;5067203;28;20032;-81
2023/06/24 00:28:25;;;;;;;13.45;11.00;;;;;;;22.76;57.93;94992.78;5068065;28;20032;-80
2023/06/24 00:30:50;;;;;;;12.80;11.43;;;;;;;22.75;58.38;94982.84;5068479;28;20040;-81
2023/06/24 00:33:22;;;;;;;12.55;10.18;;;;;;;22.77;58.37;94989.47;5069241;28;20077;-80
2023/06/24 00:35:47;;;;;;;13.45;10.10;;;;;;;22.79;58.26;94997.38;5067755;28;20059;-81
2023/06/24 00:38:13;;;;;;;12.55;9.98;;;;;;;22.71;57.56;94997.16;5068478;28;20068;-79
2023/06/24 00:40:39;;;;;;;12.10;10.65;;;;;;;22.71;57.69;94999.16;5067381;28;20756;-80
2023/06/24 00:43:05;;;;;;;11.63;10.40;;;;;;;22.70;57.91;94997.66;5067099;28;20556;-80
2023/06/24 00:45:31;;;;;;;12.45;10.77;;;;;;;22.71;57.77;94993.56;5068794;28;20028;-79
2023/06/24 00:47:58;;;;;;;12.77;10.70;;;;;;;22.66;58.38;94992.34;5066584;28;20522;-80
2023/06/24 00:50:23;;;;;;;13.52;11.45;;;;;;;22.66;59.03;94983.16;5067665;28;20518;-80
2023/06/24 00:52:49;;;;;;;16.23;10.95;;;;;;;22.63;59.36;94976.53;5068376;28;20039;-81
2023/06/24 00:55:15;;;;;;;16.77;11.23;;;;;;;22.58;59.25;94974.53;5068224;28;20051;-81
2023/06/24 00:57:43;;;;;;;12.82;11.40;;;;;;;22.55;59.12;94969.22;5066992;28;20096;-80
2023/06/24 01:00:14;;;;;;;15.90;10.73;;;;;;;22.49;59.67;94963.63;5068012;28;20035;-79
2023/06/24 01:02:42;;;;;;;13.88;11.20;;;;;;;22.47;59.63;94972.53;5051288;28;20127;-80
2023/06/24 01:05:08;;;;;;;15.27;11.45;;;;;;;22.49;59.87;94974.81;5066449;28;20021;-81
2023/06/24 01:07:35;;;;;;;16.52;11.02;;;;;;;22.43;59.80;94976.88;5068570;28;20021;-80
2023/06/24 01:10:02;;;;;;;14.98;11.93;;;;;;;22.40;59.68;94970.25;5066656;28;20064;-80
2023/06/24 01:12:27;;;;;;;14.07;11.70;;;;;;;22.35;59.74;94961.88;5066925;28;20078;-80
2023/06/24 01:14:52;;;;;;;13.68;11.50;;;;;;;22.38;59.41;94972.81;5066725;28;20422;-80
2023/06/24 01:17:24;;;;;;;15.38;12.32;;;;;;;22.25;60.02;94955.78;5066539;28;20059;-81
2023/06/24 01:20:10;;;;;;;15.23;12.05;;;;;;;22.32;60.30;94965.72;5049189;28;20025;-80
2023/06/24 01:23:04;;;;;;;13.20;11.43;;;;;;;22.30;60.31;94971.06;5066647;28;20032;-80
2023/06/24 01:26:08;;;;;;;12.50;11.20;;;;;;;22.25;60.43;94964.97;5067886;28;20036;-82
2023/06/24 01:28:45;;;;;;;14.52;12.15;;;;;;;22.22;60.59;94973.63;5067799;28;20041;-80
2023/06/24 01:31:30;;;;;;;14.73;12.70;;;;;;;22.15;60.65;94972.13;5066283;28;20036;-82
2023/06/24 01:34:25;;;;;;;15.77;12.60;;;;;;;22.19;60.85;94980.25;5066443;28;20462;-81
2023/06/24 01:37:07;;;;;;;13.25;11.85;;;;;;;21.93;60.63;94967.28;5067758;28;20077;-81
2023/06/24 01:39:47;;;;;;;14.82;11.35;;;;;;;22.09;61.05;94995.78;5066032;28;20021;-80
2023/06/24 01:42:14;;;;;;;17.77;12.95;;;;;;;22.06;60.94;94993.97;5066621;28;20027;-81
2023/06/24 01:44:42;;;;;;;19.52;13.05;;;;;;;22.06;61.18;94999.59;5066004;28;20025;-81
2023/06/24 01:47:09;;;;;;;14.77;12.57;;;;;;;21.97;61.15;94989.44;5065934;28;20051;-81
2023/06/24 01:49:38;;;;;;;13.85;11.98;;;;;;;22.00;61.37;95003.16;5049342;28;20024;-81
2023/06/24 01:52:05;;;;;;;18.38;13.02;;;;;;;21.97;61.60;95006.97;5065608;28;20036;-81
2023/06/24 01:54:30;;;;;;;17.70;13.27;;;;;;;21.93;61.32;95003.66;5066291;28;20044;-81
2023/06/24 01:56:57;;;;;;;14.45;12.95;;;;;;;21.93;61.63;95000.88;5065629;28;20032;-80
2023/06/24 01:59:23;;;;;;;16.25;12.98;;;;;;;21.92;61.56;95009.78;5066259;28;20029;-80
2023/06/24 02:01:51;;;;;;;14.65;13.02;;;;;;;21.89;61.92;95013.59;5049146;28;20025;-81
2023/06/24 02:04:17;;;;;;;15.45;12.98;;;;;;;21.90;61.75;95015.13;5049156;28;20020;-80
2023/06/24 02:06:43;;;;;;;15.38;12.68;;;;;;;21.89;61.79;95022.75;5067298;28;20021;-80
2023/06/24 02:09:08;;;;;;;14.43;12.65;;;;;;;21.82;61.64;95012.06;5065527;28;20052;-80
2023/06/24 02:11:35;;;;;;;20.80;13.63;;;;;;;21.80;61.88;95020.22;5065801;28;20043;-80
2023/06/24 02:14:01;;;;;;;16.13;12.57;;;;;;;21.81;61.69;95021.75;5066520;28;20021;-80
2023/06/24 02:16:27;;;;;;;16.30;13.05;;;;;;;21.77;62.02;95028.84;5066014;28;20035;-81
2023/06/24 02:18:53;;;;;;;16.33;12.52;;;;;;;21.70;62.42;95027.34;5065190;28;20046;-80
2023/06/24 02:21:19;;;;;;;18.35;13.52;;;;;;;21.73;62.59;95029.88;5065600;28;20422;-80
2023/06/24 02:23:46;;;;;;;16.23;13.77;;;;;;;21.73;62.61;95027.09;5065478;28;20028;-81
2023/06/24 02:26:11;;;;;;;17.02;13.73;;;;;;;21.72;62.43;95035.97;5064947;28;20032;-80
2023/06/24 02:28:37;;;;;;;17.92;14.15;;;;;;;21.63;62.76;95033.44;5065809;28;20020;-80
2023/06/24 02:31:03;;;;;;;17.27;14.10;;;;;;;21.70;62.77;95058.09;5064594;28;20487;-80
2023/06/24 02:33:28;;;;;;;16.40;13.80;;;;;;;21.69;62.70;95054.56;5065404;28;20035;-80
2023/06/24 02:35:54;;;;;;;16.42;14.23;;;;;;;21.66;62.57;95052.00;5064918;28;20029;-80
2023/06/24 02:38:19;;;;;;;15.35;13.68;;;;;;;21.61;62.83;95053.50;5065436;28;20380;-81
2023/06/24 02:40:49;;;;;;;17.45;13.38;;;;;;;21.58;62.79;95059.38;5066472;28;20085;-80
2023/06/24 02:43:14;;;;;;;17.17;14.05;;;;;;;21.51;62.93;95052.25;5066192;28;20024;-80
2023/06/24 02:45:40;;;;;;;21.50;14.77;;;;;;;21.54;63.12;95047.66;5064963;28;20403;-80
2023/06/24 02:48:08;;;;;;;18.30;14.30;;;;;;;21.54;62.98;95053.25;5064393;28;20028;-80
2023/06/24 02:50:35;;;;;;;17.42;14.02;;;;;;;21.53;63.13;95051.72;5065306;28;20024;-79
2023/06/24 02:53:01;;;;;;;18.92;14.20;;;;;;;21.51;62.79;95057.09;5047670;28;20498;-81
2023/06/24 02:55:27;;;;;;;18.48;14.77;;;;;;;21.45;63.25;95065.47;5064814;28;20045;-81
2023/06/24 02:57:53;;;;;;;18.90;14.48;;;;;;;21.47;63.11;95071.31;5064733;28;20028;-81
2023/06/24 03:00:20;;;;;;;18.75;14.63;;;;;;;21.46;62.94;95064.19;5064855;28;20528;-81
2023/06/24 03:02:46;;;;;;;16.00;14.30;;;;;;;21.46;63.24;95067.75;5064820;28;20028;-81
2023/06/24 03:05:13;;;;;;;17.67;13.57;;;;;;;21.46;63.14;95056.56;5047816;28;20020;-80
2023/06/24 03:07:38;;;;;;;16.70;14.98;;;;;;;21.46;63.14;95059.34;5065098;28;20111;-80
2023/06/24 03:10:05;;;;;;;19.08;14.60;;;;;;;21.45;63.31;95060.63;5047556;28;20024;-80
2023/06/24 03:12:31;;;;;;;16.00;14.30;;;;;;;21.50;63.29;95061.88;5066383;28;20531;-80
2023/06/24 03:14:57;;;;;;;25.20;14.73;;;;;;;21.44;63.49;95064.66;5065688;28;20016;-81
2023/06/24 03:17:22;;;;;;;19.05;14.43;;;;;;;21.46;63.26;95064.94;5064942;28;20085;-80
2023/06/24 03:19:48;;;;;;;17.58;14.00;;;;;;;21.50;63.36;95072.31;5064588;28;20036;-80
2023/06/24 03:22:13;;;;;;;15.35;13.52;;;;;;;21.47;63.51;95068.50;5066250;28;20086;-80
2023/06/24 03:24:38;;;;;;;18.65;14.98;;;;;;;21.52;63.33;95072.59;5064713;28;20292;-81
2023/06/24 03:27:04;;;;;;;15.77;13.93;;;;;;;21.50;63.55;95078.66;5065276;28;20024;-81
2023/06/24 03:29:29;;;;;;;17.38;13.27;;;;;;;21.53;63.56;95085.28;5066081;28;20067;-81
2023/06/24 03:31:55;;;;;;;21.17;14.50;;;;;;;21.53;63.12;95083.25;5065479;28;20401;-81
2023/06/24 03:34:20;;;;;;;17.80;14.50;;;;;;;21.54;63.37;95084.78;5065076;28;20463;-81
2023/06/24 03:36:46;;;;;;;15.65;14.02;;;;;;;21.55;63.30;95091.13;5064402;28;20033;-80
2023/06/24 03:39:11;;;;;;;16.33;14.57;;;;;;;21.50;63.18;95087.06;5065773;28;20052;-80
2023/06/24 03:41:37;;;;;;;17.65;14.68;;;;;;;21.56;63.37;95098.25;5065983;28;20021;-80
2023/06/24 03:44:02;;;;;;;17.92;13.98;;;;;;;21.53;63.10;95088.09;5066327;28;20029;-81
2023/06/24 03:46:32;;;;;;;16.02;13.75;;;;;;;21.59;63.41;95089.63;5070081;28;20062;-81
2023/06/24 03:48:58;;;;;;;18.58;13.85;;;;;;;21.62;63.17;95104.63;5051705;28;20460;-80
2023/06/24 03:51:23;;;;;;;15.27;13.23;;;;;;;21.63;62.96;95104.13;5070170;28;20494;-81
2023/06/24 03:53:49;;;;;;;18.80;14.35;;;;;;;21.65;62.86;95106.41;5068082;28;20024;-81
2023/06/24 03:56:14;;;;;;;20.38;14.70;;;;;;;21.64;62.45;95096.50;5069593;28;20124;-81
2023/06/24 03:58:40;;;;;;;18.30;13.73;;;;;;;21.64;61.94;95102.09;5068515;28;20409;-80
2023/06/24 04:01:05;;;;;;;16.77;13.63;;;;;;;21.54;62.16;95109.94;5068914;28;20032;-81
2023/06/24 04:03:31;;;;;;;16.60;13.98;;;;;;;21.52;62.27;95111.75;5068362;28;20114;-81
2023/06/24 04:05:57;;;;;;;16.88;13.57;;;;;;;21.45;62.73;95108.16;5068921;28;20028;-81
2023/06/24 04:08:25;;;;;;;17.63;13.02;;;;;;;21.43;62.83;95110.69;5069640;28;20020;-80
2023/06/24 04:10:51;;;;;;;16.40;13.07;;;;;;;21.51;62.77;95113.00;5067832;28;20025;-81
2023/06/24 04:13:16;;;;;;;18.20;13.30;;;;;;;21.41;62.77;95096.47;5069624;28;20031;-80
2023/06/24 04:15:41;;;;;;;18.02;14.80;;;;;;;21.42;63.16;95097.97;5069644;28;20111;-80
2023/06/24 04:18:09;;;;;;;21.00;14.68;;;;;;;21.47;63.31;95096.47;5069181;28;20036;-80
2023/06/24 04:20:34;;;;;;;17.73;14.52;;;;;;;21.45;63.18;95099.00;5069539;28;20028;-81
2023/06/24 04:23:00;;;;;;;18.48;14.70;;;;;;;21.42;62.91;95091.63;5067207;28;20025;-81
2023/06/24 04:25:26;;;;;;;20.73;15.10;;;;;;;21.51;62.64;95085.03;5069273;28;20035;-80
2023/06/24 04:27:51;;;;;;;22.05;14.85;;;;;;;21.55;62.79;95082.75;5050530;28;20033;-80
2023/06/24 04:30:17;;;;;;;19.00;15.00;;;;;;;21.56;62.57;95084.25;5069388;28;20055;-80
2023/06/24 04:32:42;;;;;;;20.13;14.20;;;;;;;21.54;62.91;95084.03;5068942;28;20059;-81
2023/06/24 04:35:08;;;;;;;16.88;14.50;;;;;;;21.59;63.11;95086.06;5068823;28;20530;-81
2023/06/24 04:37:33;;;;;;;19.90;15.43;;;;;;;21.61;62.85;95092.66;5069066;28;20502;-80
2023/06/24 04:39:59;;;;;;;17.38;15.52;;;;;;;21.67;62.56;95095.47;5068334;28;20024;-81
2023/06/24 04:42:24;;;;;;;17.38;14.73;;;;;;;21.66;62.70;95086.31;5067585;28;20107;-81
2023/06/24 04:44:50;;;;;;;18.27;15.35;;;;;;;21.78;62.10;95101.09;5068092;28;20046;-80
2023/06/24 04:47:17;;;;;;;18.00;15.38;;;;;;;21.78;62.53;95106.69;5068739;28;20064;-80
2023/06/24 04:49:44;;;;;;;19.48;15.40;;;;;;;21.82;62.31;95112.03;5066895;28;20471;-81
2023/06/24 04:52:10;;;;;;;16.80;15.02;;;;;;;21.82;62.43;95100.84;5067472;28;20052;-81
2023/06/24 04:54:36;;;;;;;17.55;14.45;;;;;;;21.91;62.38;95115.38;5068352;28;20048;-81
2023/06/24 04:57:01;;;;;;;18.83;15.10;;;;;;;22.04;62.29;95106.47;5068236;28;20510;-80
2023/06/24 04:59:27;;;;;;;20.25;15.10;;;;;;;22.07;62.33;95102.63;5068683;28;20040;-80
2023/06/24 05:01:52;;;;;;;16.90;15.15;;;;;;;22.13;62.00;95106.22;5068007;28;20497;-80
2023/06/24 05:04:18;;;;;;;17.10;15.30;;;;;;;22.17;62.12;95103.94;5067303;28;20039;-80
2023/06/24 05:06:44;;;;;;;18.33;14.38;;;;;;;22.27;61.64;95110.06;5067983;28;20100;-80
2023/06/24 05:09:13;;;;;;;19.77;16.55;;;;;;;22.36;61.68;95097.81;5050594;28;20020;-80
2023/06/24 05:11:39;;;;;;;19.92;16.17;;;;;;;22.41;61.36;95100.59;5068595;28;20028;-81
2023/06/24 05:14:05;;;;;;;19.40;14.88;;;;;;;22.43;61.25;95098.06;5049605;28;20025;-80
2023/06/24 05:16:31;;;;;;;18.83;15.68;;;;;;;22.50;61.17;95102.41;5066950;28;20071;-80
2023/06/24 05:18:57;;;;;;;18.10;14.85;;;;;;;22.57;61.28;95099.06;5066024;28;20055;-81
2023/06/24 05:21:22;;;;;;;18.48;15.23;;;;;;;22.61;61.01;95091.16;5068278;28;20463;-80
2023/06/24 05:23:48;;;;;;;19.75;15.73;;;;;;;22.70;60.62;95096.47;5067504;28;20032;-81
2023/06/24 05:26:13;;;;;;;17.27;15.15;;;;;;;22.77;60.55;95087.56;5068513;28;20028;-81
2023/06/24 05:28:39;;;;;;;18.20;15.02;;;;;;;22.84;60.38;95082.69;5066742;28;20221;-81
2023/06/24 05:31:05;;;;;;;17.88;14.85;;;;;;;22.89;60.17;95093.94;5066478;28;20515;-80
2023/06/24 05:33:30;;;;;;;17.05;15.18;;;;;;;22.92;60.02;95095.69;5068136;28;20024;-80
2023/06/24 05:35:56;;;;;;;19.23;15.90;;;;;;;23.04;59.81;95104.81;5067319;28;20425;-80
2023/06/24 05:38:21;;;;;;;18.77;15.40;;;;;;;23.05;59.39;95095.13;5066709;28;20158;-82
2023/06/24 05:40:46;;;;;;;20.42;15.50;;;;;;;23.12;59.37;95097.41;5065860;28;20028;-81
2023/06/24 05:43:12;;;;;;;17.02;14.93;;;;;;;23.13;59.71;95098.94;5067860;28;20310;-80
2023/06/24 05:45:37;;;;;;;17.95;14.65;;;;;;;23.17;59.38;95088.22;5067559;28;20031;-80
2023/06/24 05:48:03;;;;;;;18.88;15.07;;;;;;;23.27;59.00;95091.47;5065967;28;20023;-81
2023/06/24 05:50:28;;;;;;;15.88;14.20;;;;;;;23.28;58.79;95085.34;5067676;28;20079;-81
2023/06/24 05:52:54;;;;;;;18.42;14.60;;;;;;;23.37;58.78;95083.53;5066994;28;20052;-81
2023/06/24 05:55:19;;;;;;;17.63;15.80;;;;;;;23.43;58.36;95078.66;5067199;28;20044;-82
2023/06/24 05:57:45;;;;;;;17.00;14.63;;;;;;;23.48;58.21;95086.25;5065253;28;20062;-81
2023/06/24 06:00:11;;;;;;;19.17;14.60;;;;;;;23.53;57.60;95083.44;5066225;28;20070;-81
2023/06/24 06:02:36;;;;;;;16.27;14.60;;;;;;;23.58;57.22;95081.88;5066878;28;20066;-80
2023/06/24 06:05:03;;;;;;;16.30;13.48;;;;;;;23.62;57.00;95068.34;5067099;28;20021;-80
2023/06/24 06:07:28;;;;;;;16.35;13.90;;;;;;;23.67;57.64;95072.41;5067290;28;20077;-82
2023/06/24 06:09:53;;;;;;;18.88;14.98;;;;;;;23.71;57.51;95076.47;5065589;28;20016;-82
2023/06/24 06:12:19;;;;;;;17.38;13.90;;;;;;;23.78;57.30;95080.75;5067247;28;20048;-82
2023/06/24 06:14:44;;;;;;;16.80;13.23;;;;;;;23.88;57.18;95081.97;5065092;28;20482;-82
2023/06/24 06:17:10;;;;;;;19.90;14.95;;;;;;;23.95;56.58;95080.63;5066799;28;20494;-80
2023/06/24 06:19:35;;;;;;;15.63;14.02;;;;;;;24.02;56.87;95085.66;5066278;28;20032;-80
2023/06/24 06:22:00;;;;;;;17.30;13.98;;;;;;;24.09;56.81;95077.47;5066708;28;20029;-81
2023/06/24 06:24:26;;;;;;;16.77;14.05;;;;;;;24.16;56.26;95083.78;5066618;28;20116;-81
2023/06/24 06:26:51;;;;;;;16.98;13.80;;;;;;;24.22;56.27;95088.06;5066532;28;20422;-84
2023/06/24 06:29:17;;;;;;;18.90;14.93;;;;;;;24.31;56.17;95086.97;5066903;28;20034;-83
2023/06/24 06:31:42;;;;;;;17.95;14.48;;;;;;;24.38;56.02;95088.47;5066772;28;20025;-83
2023/06/24 06:34:08;;;;;;;17.00;13.85;;;;;;;24.43;55.91;95087.66;5066477;28;20043;-83
2023/06/24 06:36:34;;;;;;;16.23;13.95;;;;;;;24.50;56.10;95087.84;5064988;28;20108;-83
2023/06/24 06:39:00;;;;;;;18.48;13.35;;;;;;;24.58;55.57;95097.22;5066355;28;20036;-81
2023/06/24 06:41:25;;;;;;;16.17;13.27;;;;;;;24.67;55.26;95095.34;5066150;28;20021;-80
2023/06/24 06:43:51;;;;;;;16.23;13.60;;;;;;;24.75;54.77;95102.66;5066286;28;20102;-81
2023/06/24 06:46:17;;;;;;;16.38;14.35;;;;;;;24.80;54.41;95099.03;5066388;28;20082;-81
2023/06/24 06:48:42;;;;;;;15.27;13.52;;;;;;;24.85;54.02;95094.66;5066281;28;20020;-82
2023/06/24 06:51:08;;;;;;;16.90;13.82;;;;;;;24.88;53.57;95094.34;5066346;28;20552;-82
2023/06/24 06:53:33;;;;;;;18.55;12.60;;;;;;;24.93;53.68;95094.81;5064527;28;20062;-81
2023/06/24 06:55:58;;;;;;;14.88;11.60;;;;;;;24.96;53.01;95094.53;5065999;28;20052;-81
2023/06/24 06:58:24;;;;;;;16.67;11.88;;;;;;;25.05;52.76;95094.16;5066020;28;20122;-81
2023/06/24 07:00:50;;;;;;;14.52;12.43;;;;;;;25.13;53.12;95086.69;5064778;28;20017;-80
2023/06/24 07:03:15;;;;;;;15.90;12.68;;;;;;;25.20;53.02;95093.00;5065929;28;20032;-81
2023/06/24 07:05:41;;;;;;;14.43;11.15;;;;;;;25.25;52.94;95097.78;5064889;28;20020;-82
2023/06/24 07:08:06;;;;;;;14.68;12.32;;;;;;;25.36;51.61;95094.84;5066025;28;20044;-83
2023/06/24 07:10:32;;;;;;;13.27;11.88;;;;;;;25.33;51.37;95087.44;5064619;28;20020;-82
2023/06/24 07:12:58;;;;;;;14.15;10.95;;;;;;;25.41;51.25;95091.97;5065902;28;20024;-83
2023/06/24 07:15:25;;;;;;;13.75;11.20;;;;;;;25.47;51.45;95100.31;5064123;28;20107;-81
2023/06/24 07:17:50;;;;;;;12.90;11.50;;;;;;;25.56;51.28;95091.47;5064027;28;20025;-81
2023/06/24 07:20:15;;;;;;;12.25;10.95;;;;;;;25.66;49.63;95092.63;5063767;28;20031;-80
2023/06/24 07:22:41;;;;;;;12.15;11.00;;;;;;;25.66;49.50;95087.00;5066176;28;20025;-81
2023/06/24 07:25:06;;;;;;;12.05;10.82;;;;;;;25.73;49.29;95085.63;5065658;28;20032;-82
2023/06/24 07:27:32;;;;;;;14.20;11.63;;;;;;;25.75;49.81;95091.53;5064511;28;20032;-82
2023/06/24 07:29:57;;;;;;;13.98;12.48;;;;;;;25.73;49.76;95084.84;5065901;28;20176;-82
2023/06/24 07:32:23;;;;;;;13.27;11.98;;;;;;;25.85;49.55;95086.25;5065744;28;20017;-81
2023/06/24 07:34:48;;;;;;;13.40;11.10;;;;;;;25.90;49.16;95088.97;5064425;28;20024;-81
2023/06/24 07:37:13;;;;;;;16.33;11.63;;;;;;;25.93;48.99;95082.28;5064419;28;20029;-81
2023/06/24 07:39:39;;;;;;;12.57;10.95;;;;;;;26.02;49.33;95080.34;5064916;28;20036;-81
2023/06/24 07:42:04;;;;;;;13.88;11.40;;;;;;;26.09;49.66;95079.72;5065506;28;20402;-82
2023/06/24 07:44:30;;;;;;;12.48;10.40;;;;;;;26.20;48.28;95076.72;5064778;28;20017;-81
2023/06/24 07:46:55;;;;;;;11.70;10.50;;;;;;;26.25;49.01;95084.31;5065726;28;20027;-82
2023/06/24 07:49:20;;;;;;;12.15;10.77;;;;;;;26.36;49.26;95077.75;5065206;28;20388;-81
2023/06/24 07:51:46;;;;;;;13.82;10.88;;;;;;;26.47;48.65;95083.97;5065843;28;20024;-82
2023/06/24 07:54:11;;;;;;;12.98;11.25;;;;;;;26.58;48.14;95091.47;5064700;28;20036;-81
2023/06/24 07:56:37;;;;;;;13.45;12.07;;;;;;;26.66;48.27;95092.34;5065796;28;20454;-83
2023/06/24 07:59:02;;;;;;;13.23;11.13;;;;;;;26.83;47.94;95080.75;5065096;28;20024;-81
2023/06/24 08:01:28;;;;;;;12.77;11.10;;;;;;;26.93;47.86;95092.38;5065913;28;20494;-80
2023/06/24 08:03:53;;;;;;;11.88;10.30;;;;;;;26.96;47.44;95092.06;5065442;28;20070;-82
2023/06/24 08:06:19;;;;;;;13.05;11.32;;;;;;;27.04;47.79;95105.50;5064447;28;20505;-83
2023/06/24 08:08:46;;;;;;;16.40;11.77;;;;;;;27.16;47.15;95089.91;5064504;28;20499;-82
2023/06/24 08:11:11;;;;;;;12.45;11.27;;;;;;;27.26;46.95;95091.75;5064833;28;20028;-82
2023/06/24 08:13:37;;;;;;;13.07;11.23;;;;;;;27.22;46.45;95082.09;5064079;28;20039;-80
2023/06/24 08:16:02;;;;;;;13.05;11.68;;;;;;;27.37;46.21;95078.72;5063352;28;20024;-82
2023/06/24 08:18:28;;;;;;;14.18;11.38;;;;;;;27.36;46.63;95085.66;5065462;28;20025;-81
2023/06/24 08:20:53;;;;;;;13.68;12.20;;;;;;;27.37;46.51;95075.91;5046999;28;20016;-81
2023/06/24 08:23:19;;;;;;;12.52;11.23;;;;;;;27.49;46.32;95080.75;5065594;28;20120;-81
2023/06/24 08:25:44;;;;;;;12.45;11.23;;;;;;;27.59;46.14;95078.25;5065772;28;20048;-81
2023/06/24 08:28:10;;;;;;;12.70;11.50;;;;;;;27.69;45.87;95078.53;5064791;28;20032;-81
2023/06/24 08:30:36;;;;;;;13.27;11.05;;;;;;;27.79;45.93;95073.97;5067633;28;20060;-81
2023/06/24 08:33:01;;;;;;;13.25;11.32;;;;;;;27.89;45.70;95079.91;5068592;28;20449;-81
2023/06/24 08:35:26;;;;;;;13.48;11.77;;;;;;;27.93;45.50;95077.47;5068954;28;20078;-81
2023/06/24 08:37:52;;;;;;;11.98;10.88;;;;;;;28.02;45.29;95072.13;5068080;28;20093;-80
2023/06/24 08:40:17;;;;;;;16.42;11.63;;;;;;;28.12;45.39;95069.59;5067695;28;20139;-81
2023/06/24 08:42:43;;;;;;;12.73;11.45;;;;;;;28.22;44.75;95064.22;5068632;28;20100;-82
2023/06/24 08:45:09;;;;;;;14.90;11.98;;;;;;;28.31;44.61;95063.72;5066653;28;20074;-80
2023/06/24 08:47:35;;;;;;;12.27;10.82;;;;;;;28.38;43.87;95065.13;5068677;28;20082;-82
2023/06/24 08:50:05;;;;;;;11.90;10.70;;;;;;;28.45;44.33;95050.31;5066236;28;20035;-82
2023/06/24 08:52:32;;;;;;;13.32;10.90;;;;;;;28.50;44.49;95058.66;5067160;28;20060;-82
2023/06/24 08:54:59;;;;;;;12.52;11.30;;;;;;;28.59;44.64;95063.03;5066204;28;20044;-82
2023/06/24 08:57:24;;;;;;;13.02;11.73;;;;;;;28.65;44.01;95057.25;5068504;28;20028;-82
2023/06/24 08:59:50;;;;;;;13.57;11.63;;;;;;;28.78;43.79;95055.06;5067916;28;20467;-82
2023/06/24 09:02:15;;;;;;;12.27;11.07;;;;;;;28.89;43.53;95062.50;5050312;28;20032;-82
2023/06/24 09:04:41;;;;;;;12.48;10.95;;;;;;;28.94;43.24;95050.28;5067130;28;20031;-83
2023/06/24 09:07:07;;;;;;;12.88;11.38;;;;;;;29.04;43.45;95047.72;5066336;28;20029;-82
2023/06/24 09:09:32;;;;;;;13.07;11.65;;;;;;;29.24;42.86;95049.69;5068216;28;20091;-81
2023/06/24 09:11:59;;;;;;;12.88;11.57;;;;;;;29.34;42.53;95056.34;5067322;28;20039;-77
2023/06/24 09:14:26;;;;;;;11.32;10.02;;;;;;;29.39;42.94;95051.84;5066914;28;20021;-80
2023/06/24 09:16:56;;;;;;;14.70;11.23;;;;;;;29.40;43.27;95049.78;5065961;28;20048;-78
2023/06/24 09:19:23;;;;;;;13.05;10.50;;;;;;;29.50;43.00;95040.19;5067890;28;20039;-78
2023/06/24 09:21:49;;;;;;;14.55;11.48;;;;;;;29.63;42.66;95053.47;5066841;28;20052;-82
2023/06/24 09:24:14;;;;;;;14.95;11.63;;;;;;;29.77;42.41;95054.09;5067534;28;20089;-82
2023/06/24 09:26:42;;;;;;;12.88;10.98;;;;;;;29.80;42.46;95053.72;5066866;28;20055;-83
2023/06/24 09:29:08;;;;;;;12.35;11.05;;;;;;;29.85;42.31;95049.94;5065977;28;20025;-81
2023/06/24 09:31:33;;;;;;;12.50;11.23;;;;;;;29.95;41.67;95055.09;5066707;28;20466;-82
2023/06/24 09:33:59;;;;;;;13.73;10.70;;;;;;;30.02;41.83;95048.66;5065619;28;20056;-82
2023/06/24 09:36:24;;;;;;;11.60;10.15;;;;;;;30.15;39.86;95048.50;5068251;28;20430;-82
2023/06/24 09:38:51;;;;;;;11.60;10.00;;;;;;;30.21;40.38;95051.91;5066540;28;20029;-83
2023/06/24 09:41:16;;;;;;;13.80;10.10;;;;;;;30.32;39.97;95054.38;5048463;28;20055;-81
2023/06/24 09:43:44;;;;;;;11.15;10.07;;;;;;;30.48;39.83;95057.25;5066405;28;20016;-81
2023/06/24 09:46:10;;;;;;;13.52;11.32;;;;;;;30.53;40.63;95042.13;5066881;28;20090;-78
2023/06/24 09:48:35;;;;;;;13.73;10.93;;;;;;;30.65;40.72;95051.75;5065872;28;20475;-80
2023/06/24 09:51:03;;;;;;;13.23;10.73;;;;;;;30.76;40.19;95048.56;5065373;28;20035;-80
2023/06/24 09:53:33;;;;;;;12.32;11.13;;;;;;;30.91;40.22;95051.38;5067539;28;20024;-80
2023/06/24 09:56:04;;;;;;;12.85;10.50;;;;;;;31.06;38.72;95041.31;5065629;28;20131;-82
2023/06/24 09:58:32;;;;;;;12.13;10.77;;;;;;;31.16;39.24;95040.13;5065700;28;20103;-81
2023/06/24 10:01:03;;;;;;;10.77;9.68;;;;;;;31.27;38.68;95036.16;5067347;28;20514;-81
2023/06/24 10:03:30;;;;;;;11.70;10.18;;;;;;;31.38;38.39;95032.91;5065506;28;20035;-81
2023/06/24 10:05:55;;;;;;;12.75;10.40;;;;;;;31.51;37.70;95031.91;5065673;28;20054;-81
2023/06/24 10:08:20;;;;;;;11.35;10.27;;;;;;;31.54;37.54;95018.63;5066637;28;20016;-80
2023/06/24 10:10:46;;;;;;;12.95;9.93;;;;;;;31.64;37.55;95020.28;5067214;28;20023;-80
2023/06/24 10:13:12;;;;;;;13.65;9.80;;;;;;;31.76;37.29;95029.13;5065301;28;20031;-80
2023/06/24 10:15:37;;;;;;;11.00;10.00;;;;;;;31.83;36.74;95019.06;5065583;28;20481;-81
2023/06/24 10:18:05;;;;;;;9.82;8.98;;;;;;;31.92;37.01;95010.66;5066960;28;20035;-80
2023/06/24 10:20:36;;;;;;;10.55;9.55;;;;;;;32.05;36.27;95006.03;5064952;28;20475;-80
2023/06/24 10:23:06;;;;;;;11.07;9.95;;;;;;;32.13;36.12;95006.75;5066708;28;20028;-81
2023/06/24 10:25:36;;;;;;;11.05;9.60;;;;;;;32.21;36.03;94999.66;5066161;28;20516;-80
2023/06/24 10:28:03;;;;;;;14.70;9.63;;;;;;;32.27;35.67;94996.59;5066615;28;20032;-81
2023/06/24 10:30:29;;;;;;;13.38;10.57;;;;;;;32.30;35.72;94995.44;5066688;28;20111;-80
2023/06/24 10:32:54;;;;;;;10.38;9.25;;;;;;;32.37;35.61;94983.25;5048757;28;20039;-79
2023/06/24 10:35:29;;;;;;;11.70;9.38;;;;;;;32.46;35.68;94990.38;5065633;28;20418;-81
2023/06/24 10:37:56;;;;;;;10.98;9.90;;;;;;;32.56;35.11;94977.00;5065402;28;20487;-79
2023/06/24 10:40:48;;;;;;;10.02;9.02;;;;;;;32.57;34.71;94974.91;5065452;28;20116;-79
2023/06/24 10:43:29;;;;;;;10.63;9.60;;;;;;;32.56;34.70;94965.63;5062039;28;20033;-79
2023/06/24 10:45:58;;;;;;;9.50;8.55;;;;;;;32.60;35.24;94963.13;5064756;28;20021;-80
2023/06/24 10:48:24;;;;;;;10.02;8.88;;;;;;;32.71;34.15;94953.34;5065171;28;20502;-81
2023/06/24 10:50:50;;;;;;;11.00;9.00;;;;;;;32.83;34.38;94954.38;5064376;28;20078;-81
2023/06/24 10:53:15;;;;;;;11.15;9.48;;;;;;;32.87;34.14;94949.00;5064607;28;20185;-80
2023/06/24 10:55:43;;;;;;;9.93;8.60;;;;;;;32.97;34.08;94944.16;5066084;28;20049;-79
2023/06/24 10:58:14;;;;;;;9.23;8.27;;;;;;;32.96;33.88;94942.66;5066244;28;20125;-81
2023/06/24 11:00:39;;;;;;;11.02;7.70;;;;;;;33.08;32.86;94947.84;5064815;28;20017;-82
2023/06/24 11:03:23;;;;;;;8.10;7.30;;;;;;;33.13;32.17;94935.44;5064423;28;20039;-82
2023/06/24 11:05:49;;;;;;;7.65;6.85;;;;;;;33.28;31.86;94938.09;5065014;28;20110;-82
2023/06/24 11:08:15;;;;;;;8.50;6.45;;;;;;;33.44;30.45;94938.69;5065485;28;20044;-81
2023/06/24 11:10:47;;;;;;;8.63;6.28;;;;;;;33.59;30.50;94949.13;5066287;28;20478;-82
2023/06/24 11:13:12;;;;;;;;;;;;;;;33.76;31.82;94957.59;5065866;28;20034;-80
2023/06/24 11:15:42;;;;;;;9.05;6.57;;;;;;;33.92;30.65;94946.72;5048255;28;20011;-81
2023/06/24 11:18:10;;;;;;;9.05;6.95;;;;;;;34.00;30.30;94947.38;5065798;28;20028;-81